LYBE/BEG METAR and TAF weather

Enter ICAO airport designator
Station Type Date Time Source
LYBE METAR 2018/10/19 16:00 UTC NOAA

LYBE 191600Z 01004KT CAVOK 19/09 Q1018 NOSIG


Station Type Date Time Source
LYBE Decoded METAR 2018/10/19 16:00 UTC NOAA

Beograd / Surcin, Serbia and Montenegro (LYBE) 44-49N 020-17E 99M
Oct 19, 2018 - 12:00 PM EDT / 2018.10.19 1600 UTC
Wind: from the N (010 degrees) at 5 MPH (4 KT):0
Visibility: greater than 7 mile(s):0
Temperature: 66 F (19 C)
Dew Point: 48 F (9 C)
Relative Humidity: 52%
Pressure (altimeter): 30.06 in. Hg (1018 hPa)
ob: LYBE 191600Z 01004KT CAVOK 19/09 Q1018 NOSIG
cycle: 16

Station Type Date Time Source
LYBE TAF 2018/10/19 12:26 UTC NOAA

TAF LYBE 191100Z 1912/2012 32006KT CAVOK TX22/1912Z TN10/2005Z
TEMPO 1919/2003 4000 -SHRA FEW030TCU SCT033
TEMPO 2003/2007 2000 BR


Example: see airport list